Time;durP1;ratioP1;P1;durP2;ratioP2;P2;SDS_P1;SDS_P2;PMS_P1;PMS_P2;Temp;Humidity;BMP_temperature;BMP_pressure;BME280_temperature;BME280_humidity;BME280_pressure;Samples;Min_cycle;Max_cycle;Signal;HPM_P1;HPM_P2
2021/12/03 13:57:55;;;;;;;7.70;5.28;;;;;;;2.42;68.55;98479.03;2618761;47;20184;-69
2021/12/03 14:00:34;;;;;;;8.40;5.72;;;;;;;2.46;68.57;98472.56;2618005;54;20042;-69
2021/12/03 14:42:22;;;;;;;6.78;5.43;;;;;;;2.58;68.70;98442.66;2616775;47;20019;-69
2021/12/03 14:45:06;;;;;;;7.22;5.47;;;;;;;2.63;68.64;98450.03;2617236;47;20030;-69
2021/12/03 14:47:53;;;;;;;8.30;5.53;;;;;;;2.60;68.75;98437.28;2618396;39;20097;-68
2021/12/03 14:56:07;;;;;;;8.27;5.63;;;;;;;2.38;68.81;98405.47;2617661;54;20046;-68
2021/12/03 14:58:46;;;;;;;7.82;5.00;;;;;;;2.36;69.12;98412.59;2617073;47;20023;-69
2021/12/03 15:01:25;;;;;;;6.53;5.00;;;;;;;2.39;69.34;98407.09;2616770;54;20490;-69
2021/12/03 15:04:09;;;;;;;6.57;4.53;;;;;;;2.40;68.96;98402.69;2617960;54;20125;-67
2021/12/03 15:06:42;;;;;;;7.75;4.82;;;;;;;2.36;68.80;98409.19;2617694;54;20050;-66
2021/12/03 15:09:17;;;;;;;9.75;5.15;;;;;;;2.32;69.23;98398.22;2617835;54;20039;-65
2021/12/03 15:25:59;;;;;;;5.28;4.45;;;;;;;2.34;69.36;98385.06;2616873;54;20033;-67
2021/12/03 15:34:19;;;;;;;5.15;4.18;;;;;;;2.27;69.00;98378.78;2617661;54;20030;-66
2021/12/03 15:37:06;;;;;;;7.15;4.47;;;;;;;2.27;69.40;98381.41;2617000;47;20038;-67
2021/12/03 15:40:00;;;;;;;9.20;6.28;;;;;;;2.30;69.39;98392.34;2617510;54;20030;-67
2021/12/03 15:56:22;;;;;;;5.28;4.10;;;;;;;2.31;69.38;98378.34;2616181;54;20083;-66
2021/12/03 16:04:22;;;;;;;6.97;4.30;;;;;;;2.34;69.33;98374.63;2618773;54;20537;-67
2021/12/03 16:09:54;;;;;;;7.32;4.88;;;;;;;2.37;69.13;98358.66;2618544;54;20039;-67
2021/12/03 16:12:35;;;;;;;5.28;4.22;;;;;;;2.31;69.00;98349.63;2618021;54;20042;-67
2021/12/03 16:18:16;;;;;;;4.70;3.80;;;;;;;2.30;68.78;98337.56;2617553;47;20069;-66
2021/12/03 16:23:54;;;;;;;5.35;4.20;;;;;;;2.37;69.36;98346.44;2616878;54;20030;-66
2021/12/03 16:26:37;;;;;;;5.85;4.10;;;;;;;2.41;68.73;98333.91;2618088;54;20043;-66
2021/12/03 16:53:41;;;;;;;5.85;3.97;;;;;;;2.30;68.09;98301.06;2617576;47;20061;-66
2021/12/03 16:56:22;;;;;;;9.25;4.95;;;;;;;2.25;68.04;98300.72;2618533;39;20411;-65
2021/12/03 16:58:52;;;;;;;10.32;5.53;;;;;;;2.27;68.10;98296.13;2618111;54;20038;-65
2021/12/03 17:01:27;;;;;;;7.90;5.15;;;;;;;2.31;68.31;98297.47;2617818;54;20549;-67
2021/12/03 17:04:04;;;;;;;9.45;4.32;;;;;;;2.27;68.45;98296.13;2617898;54;20049;-67
2021/12/03 17:10:00;;;;;;;18.67;9.68;;;;;;;2.22;68.19;98293.19;2618028;47;20030;-67
2021/12/03 17:12:44;;;;;;;;;;;;;;;2.17;68.38;98296.25;2617935;54;20034;-66
2021/12/03 17:54:00;;;;;;;6.53;4.65;;;;;;;2.37;68.42;98249.94;2617483;47;20038;-68
2021/12/03 17:56:34;;;;;;;9.13;4.95;;;;;;;2.40;68.23;98246.16;2618117;54;20038;-67
2021/12/03 17:59:12;;;;;;;9.32;5.00;;;;;;;2.39;68.18;98231.50;2618450;39;20441;-68
2021/12/03 18:01:51;;;;;;;9.38;4.72;;;;;;;2.38;68.34;98238.50;2617653;54;20041;-68
2021/12/03 18:04:39;;;;;;;6.05;4.03;;;;;;;2.44;68.28;98229.22;2624857;54;20544;-70
2021/12/03 18:13:16;;;;;;;7.07;4.00;;;;;;;2.45;67.80;98226.50;2624928;39;20478;-70
2021/12/03 18:51:24;;;;;;;6.15;4.20;;;;;;;2.48;69.61;98145.28;2623138;54;20031;-71
2021/12/03 18:56:42;;;;;;;8.13;3.80;;;;;;;2.56;69.15;98133.25;2625420;54;20562;-69
2021/12/03 18:59:12;;;;;;;8.13;4.25;;;;;;;2.57;69.21;98127.03;2623883;47;20082;-69
2021/12/03 19:01:48;;;;;;;8.48;4.63;;;;;;;2.59;69.59;98119.88;2623644;54;20034;-70
2021/12/03 19:04:28;;;;;;;8.77;4.80;;;;;;;2.60;69.31;98113.69;2624180;54;20030;-69
2021/12/03 19:07:03;;;;;;;6.53;3.72;;;;;;;2.57;69.31;98112.22;2624635;54;20022;-69
2021/12/03 19:09:37;;;;;;;6.18;4.50;;;;;;;2.54;69.66;98114.34;2625383;54;20130;-70
2021/12/03 19:12:09;;;;;;;;;;;;;;;2.52;69.62;98118.88;2627187;39;20438;-71
2021/12/03 19:14:42;;;;;;;11.45;6.15;;;;;;;2.53;69.43;98113.53;2625789;54;20418;-69
2021/12/03 19:17:14;;;;;;;7.40;4.78;;;;;;;2.55;69.47;98102.91;2626018;54;20038;-70
2021/12/03 19:19:46;;;;;;;13.02;5.07;;;;;;;2.54;69.08;98091.66;2625985;54;20043;-69
2021/12/03 19:22:16;;;;;;;9.90;5.13;;;;;;;2.56;69.42;98083.66;2625651;51;20038;-70
2021/12/03 19:24:46;;;;;;;6.45;4.50;;;;;;;2.59;69.03;98068.50;2626288;54;20035;-69
2021/12/03 19:27:16;;;;;;;9.60;5.43;;;;;;;2.56;69.16;98074.03;2627050;39;20454;-70
2021/12/03 19:29:45;;;;;;;8.55;4.47;;;;;;;2.54;69.01;98070.78;2625788;47;20030;-70
2021/12/03 19:32:18;;;;;;;7.50;4.15;;;;;;;2.57;69.20;98070.47;2626034;54;20023;-73
2021/12/03 19:34:47;;;;;;;9.63;4.35;;;;;;;2.54;69.14;98075.19;2625760;39;20414;-69
2021/12/03 19:37:17;;;;;;;9.80;4.25;;;;;;;2.57;68.77;98073.09;2625925;54;20042;-73
2021/12/03 19:39:46;;;;;;;10.18;4.95;;;;;;;2.64;68.76;98060.22;2626326;54;20027;-71
2021/12/03 19:42:19;;;;;;;7.70;3.65;;;;;;;2.64;68.57;98054.97;2624499;54;20550;-71
2021/12/03 19:44:52;;;;;;;6.70;3.08;;;;;;;2.55;68.92;98046.31;2622714;46;20034;-73
2021/12/03 19:47:31;;;;;;;6.85;3.08;;;;;;;2.51;69.21;98042.41;2623547;54;20061;-69
2021/12/03 19:50:14;;;;;;;11.80;5.80;;;;;;;2.54;68.87;98052.53;2623723;54;20038;-71
2021/12/03 19:52:47;;;;;;;7.95;3.53;;;;;;;2.48;68.87;98051.34;2625397;54;20035;-70
2021/12/03 19:55:18;;;;;;;5.60;3.10;;;;;;;2.52;69.10;98051.03;2625475;54;20048;-70
2021/12/03 19:57:48;;;;;;;6.25;3.42;;;;;;;2.53;69.12;98055.28;2625670;54;20030;-68
2021/12/03 20:00:18;;;;;;;7.80;3.10;;;;;;;2.53;69.47;98047.44;2625965;54;20038;-68
2021/12/03 20:02:50;;;;;;;6.10;3.25;;;;;;;2.53;69.57;98043.09;2625312;54;20054;-69
2021/12/03 20:05:20;;;;;;;5.93;3.00;;;;;;;2.53;69.51;98024.81;2623041;54;20030;-69
2021/12/03 20:07:51;;;;;;;7.70;3.35;;;;;;;2.54;69.57;98039.50;2623887;54;20034;-69
2021/12/03 20:10:23;;;;;;;6.55;3.17;;;;;;;2.57;69.43;98033.97;2625164;54;20034;-68
2021/12/03 20:12:53;;;;;;;5.22;3.20;;;;;;;2.56;69.25;98031.47;2624821;54;20038;-70
2021/12/03 20:15:26;;;;;;;5.53;3.20;;;;;;;2.54;69.23;98028.22;2623922;47;20041;-71
2021/12/03 20:18:09;;;;;;;5.28;3.35;;;;;;;2.56;69.35;98018.44;2624444;54;20537;-71
2021/12/03 20:20:40;;;;;;;6.93;3.35;;;;;;;2.60;69.11;98015.34;2624774;54;20027;-70
2021/12/03 20:23:15;;;;;;;6.25;3.63;;;;;;;2.58;69.05;98006.88;2624865;54;20061;-70
2021/12/03 20:26:08;;;;;;;6.50;4.10;;;;;;;2.58;69.46;97998.25;2624744;54;20560;-71
2021/12/03 20:28:41;;;;;;;9.77;4.25;;;;;;;2.55;69.45;97996.75;2624592;54;20814;-71
2021/12/03 20:31:13;;;;;;;9.30;5.07;;;;;;;2.60;69.11;97991.84;2624545;54;20026;-69
2021/12/03 20:36:37;;;;;;;4.75;3.13;;;;;;;2.61;69.14;97992.66;2625307;39;20484;-69
2021/12/03 20:39:13;;;;;;;4.38;3.42;;;;;;;2.62;68.97;97986.50;2624625;46;20029;-70
2021/12/03 20:41:47;;;;;;;7.32;3.90;;;;;;;2.61;69.07;97990.06;2625542;54;20045;-71
2021/12/03 20:44:38;;;;;;;4.55;3.20;;;;;;;2.58;69.26;97982.59;2625310;54;20045;-69
2021/12/03 20:47:25;;;;;;;5.68;3.85;;;;;;;2.62;68.97;97984.69;2624586;54;20035;-69
2021/12/03 20:50:06;;;;;;;10.02;3.63;;;;;;;2.66;69.20;97970.34;2625214;54;20049;-69
2021/12/03 20:52:44;;;;;;;6.78;3.17;;;;;;;2.68;69.31;97970.19;2626213;54;20043;-69
2021/12/03 21:08:52;;;;;;;;;;;;;;;2.70;69.18;97957.78;2626857;54;20835;-69
2021/12/03 21:11:26;;;;;;;7.65;3.22;;;;;;;2.72;68.90;97950.59;2626911;54;19945;-69
2021/12/03 21:14:02;;;;;;;5.75;3.50;;;;;;;2.69;69.08;97956.16;2626351;46;20027;-68
2021/12/03 21:16:53;;;;;;;8.00;4.10;;;;;;;2.74;69.21;97946.06;2626486;54;20081;-69
2021/12/03 21:19:40;;;;;;;6.57;3.53;;;;;;;2.72;68.98;97942.78;2626227;54;20038;-71
2021/12/03 21:22:15;;;;;;;5.38;3.22;;;;;;;2.79;69.44;97943.75;2625619;47;20030;-70
2021/12/03 21:24:49;;;;;;;6.03;3.83;;;;;;;2.78;69.11;97936.91;2626480;54;20043;-69
2021/12/03 21:27:30;;;;;;;6.22;3.22;;;;;;;2.77;69.18;97926.63;2625704;54;20039;-74
2021/12/03 21:30:14;;;;;;;7.68;3.03;;;;;;;2.78;69.60;97915.22;2626221;54;20039;-71
2021/12/03 21:32:52;;;;;;;4.45;2.80;;;;;;;2.83;69.19;97908.50;2626096;54;20034;-69
2021/12/03 21:43:34;;;;;;;6.47;3.85;;;;;;;2.82;68.63;97890.41;2625087;54;20047;-70
2021/12/03 21:46:03;;;;;;;5.22;3.20;;;;;;;2.81;68.61;97886.97;2625253;54;20035;-69
2021/12/03 21:48:33;;;;;;;7.80;3.05;;;;;;;2.81;68.43;97881.75;2625081;54;20033;-70
2021/12/03 21:51:05;;;;;;;7.05;2.75;;;;;;;2.77;69.03;97897.91;2623515;47;20030;-69
2021/12/03 21:53:37;;;;;;;7.03;2.90;;;;;;;2.78;68.88;97894.34;2623864;46;20041;-71
2021/12/03 21:56:07;;;;;;;7.30;2.70;;;;;;;2.81;69.02;97896.59;2623484;54;20130;-70
2021/12/03 21:58:37;;;;;;;7.35;3.25;;;;;;;2.78;68.85;97895.16;2624081;54;20061;-70
2021/12/03 22:01:06;;;;;;;3.75;2.60;;;;;;;2.78;69.08;97887.31;2625301;54;20167;-70
2021/12/03 22:03:37;;;;;;;5.40;3.20;;;;;;;2.78;69.02;97879.50;2625384;54;20075;-68
2021/12/03 22:06:07;;;;;;;2.50;2.25;;;;;;;2.82;68.97;97875.56;2625297;39;20422;-69
2021/12/03 22:08:39;;;;;;;8.68;3.35;;;;;;;2.87;69.43;97868.06;2625557;39;20763;-68
2021/12/03 22:11:09;;;;;;;4.43;3.00;;;;;;;2.83;69.40;97865.94;2625059;54;20604;-71
2021/12/03 22:13:39;;;;;;;4.20;2.90;;;;;;;2.89;69.92;97860.03;2624800;54;20034;-72
2021/12/03 22:16:08;;;;;;;7.47;2.90;;;;;;;2.82;69.99;97856.50;2625046;54;20027;-69
2021/12/03 22:18:38;;;;;;;7.70;3.05;;;;;;;2.90;70.08;97846.84;2625852;54;20029;-69
2021/12/03 22:21:08;;;;;;;5.30;2.90;;;;;;;2.88;70.23;97850.59;2625704;54;20030;-69
2021/12/03 22:23:43;;;;;;;9.65;3.35;;;;;;;2.87;70.37;97857.59;2624425;47;20034;-69
2021/12/03 22:26:13;;;;;;;4.63;3.03;;;;;;;2.82;71.04;97846.06;2624690;54;20027;-69
2021/12/03 22:28:43;;;;;;;6.90;3.22;;;;;;;2.78;71.67;97845.56;2624615;54;20030;-68
2021/12/03 22:31:14;;;;;;;4.55;2.85;;;;;;;2.77;71.73;97832.66;2623696;39;20415;-69
2021/12/03 22:33:44;;;;;;;3.50;2.83;;;;;;;2.79;72.21;97841.16;2623907;54;20057;-71
2021/12/03 22:36:14;;;;;;;7.15;3.20;;;;;;;2.81;72.34;97841.78;2624483;54;20034;-70
2021/12/03 22:38:46;;;;;;;6.43;2.92;;;;;;;2.76;72.46;97829.25;2624084;54;20039;-70
2021/12/03 22:41:16;;;;;;;4.90;2.58;;;;;;;2.75;73.06;97837.25;2624260;47;20035;-71
2021/12/03 22:43:47;;;;;;;6.15;2.55;;;;;;;2.71;73.28;97831.53;2625259;54;20046;-70
2021/12/03 22:46:30;;;;;;;7.07;3.95;;;;;;;2.70;73.49;97827.31;2625506;54;20026;-68
2021/12/03 22:51:57;;;;;;;6.45;3.53;;;;;;;2.78;73.85;97813.44;2625983;39;20453;-68
2021/12/03 22:54:31;;;;;;;6.47;3.55;;;;;;;2.72;74.42;97804.47;2625286;54;20065;-70
2021/12/03 22:57:01;;;;;;;6.13;3.17;;;;;;;2.75;74.43;97798.91;2625273;54;20038;-69
2021/12/03 22:59:30;;;;;;;6.20;3.25;;;;;;;2.80;74.59;97801.81;2625575;54;20057;-71
2021/12/03 23:02:02;;;;;;;6.55;2.85;;;;;;;2.76;74.73;97792.69;2624946;54;20030;-68
2021/12/03 23:04:33;;;;;;;5.05;3.10;;;;;;;2.77;75.38;97793.50;2625153;54;20074;-68
2021/12/03 23:07:03;;;;;;;5.50;2.72;;;;;;;2.78;75.10;97784.72;2625119;54;20038;-71
2021/12/03 23:09:37;;;;;;;4.38;2.83;;;;;;;2.76;75.38;97781.44;2624483;54;20034;-70
2021/12/03 23:12:09;;;;;;;4.95;3.08;;;;;;;2.68;75.86;97779.69;2622924;54;20023;-68
2021/12/03 23:14:40;;;;;;;4.53;2.70;;;;;;;2.69;75.87;97774.31;2622978;54;20031;-69
2021/12/03 23:17:11;;;;;;;4.07;3.00;;;;;;;2.68;76.14;97767.44;2623655;39;20441;-69
2021/12/03 23:19:40;;;;;;;7.53;3.22;;;;;;;2.72;76.24;97754.88;2623280;54;20034;-69
2021/12/03 23:22:10;;;;;;;3.35;2.17;;;;;;;2.72;76.83;97749.66;2622744;54;20026;-69
2021/12/03 23:24:42;;;;;;;4.45;2.58;;;;;;;2.73;76.50;97751.28;2622995;54;20070;-69
2021/12/03 23:27:12;;;;;;;3.20;2.35;;;;;;;2.76;76.71;97745.72;2624980;54;20046;-72
2021/12/03 23:29:42;;;;;;;3.60;2.40;;;;;;;2.73;76.80;97739.06;2625720;54;20081;-69
2021/12/03 23:32:12;;;;;;;3.05;2.42;;;;;;;2.71;76.57;97727.16;2624217;47;20034;-70
2021/12/03 23:34:43;;;;;;;4.25;2.40;;;;;;;2.73;76.82;97733.84;2626108;54;20034;-70
2021/12/03 23:37:12;;;;;;;4.82;2.30;;;;;;;2.72;76.80;97724.38;2625033;54;20027;-71
2021/12/03 23:39:45;;;;;;;4.47;2.28;;;;;;;2.77;77.00;97731.69;2624544;54;20038;-70
2021/12/03 23:42:14;;;;;;;2.78;2.13;;;;;;;2.74;77.55;97719.00;2623742;47;20034;-70
2021/12/03 23:44:44;;;;;;;2.45;1.92;;;;;;;2.77;77.31;97717.81;2623717;54;20550;-70
2021/12/03 23:47:13;;;;;;;4.35;2.42;;;;;;;2.80;77.33;97709.66;2624012;54;20030;-68
2021/12/03 23:49:43;;;;;;;3.22;2.50;;;;;;;2.81;77.62;97704.25;2624094;54;20022;-68
2021/12/03 23:52:14;;;;;;;2.55;2.25;;;;;;;2.79;77.69;97695.81;2623526;54;20031;-68
2021/12/03 23:54:46;;;;;;;5.32;2.05;;;;;;;2.81;78.12;97695.63;2623857;54;20035;-68
2021/12/03 23:57:16;;;;;;;4.22;2.10;;;;;;;2.80;78.16;97692.19;2623842;47;20030;-68
2021/12/03 23:59:45;;;;;;;2.85;2.17;;;;;;;2.86;77.86;97690.72;2623636;54;20033;-68
